logo
Search for airport 
image banner adimage banner adimage banner ad
image banner ad

FLRZ - Royal Zambezi

Located in Mafuta, Zambia

ICAO - FLRZ, IATA - RYL

Data provided by Airmate  

General information

Coordinates: S15°43'39" E29°17'45"
Elevation is 1243 feet MSL.
Magnetic variation is -6° East
View others Airports in Lusaka Province

Operational data

Special qualification required
Current time UTC:
Current local time:
Weather at : - ( 0 km )
METAR: CYNM 200751Z AUTO 25011G17KT 2 1/2SM -SN BKN009 OVC013 00/M01 A2955 RMK SLP022
View NOTAMs / SUP AIP / TFR affecting this airport [VIEW]
Communications frequencies: [VIEW]

Runways:

RWY identifierQFULength (ft)Width (ft)SurfaceLDA (ft)
0872°503060ASPH
26252°503060ASPH

Airport contact information

Address: Mafuta Zambia

Satellite view of FLRZ